<?xml version="1.0" encoding="UTF-8" standalone="no" ?>
<gpx xmlns="http://www.topografix.com/GPX/1/1" xmlns:xsi="http://www.w3.org/2001/XMLSchema-instance" xsi:schemaLocation="http://www.topografix.com/GPX/1/1 http://www.topografix.com/GPX/1/1/gpx.xsd" version="1.1" creator="VisuGPX - https://www.visugpx.com">
  <metadata>
    <name>Yeu_Chatelet_8.7km</name>
    <desc><![CDATA[gnerando idor:7847583]]></desc>
  </metadata>
  <trk>
    <name><![CDATA[YeuChatelet_8.7km-7847583]]></name>
    <extensions>
      <line xmlns="http://www.topografix.com/GPX/gpx_style/0/2">
        <color>0000FF</color>
        <width>4</width>
      </line>
    </extensions>
    <trkseg>
      <trkpt lat="46.70326" lon="-2.37508">
        <ele>8</ele>
        <time>2023-11-05T10:41:17Z</time>
      </trkpt>
      <trkpt lat="46.70279" lon="-2.37266">
        <ele>8</ele>
        <time>2023-11-05T10:45:07Z</time>
      </trkpt>
      <trkpt lat="46.70196" lon="-2.36935">
        <ele>8</ele>
        <time>2023-11-05T10:50:30Z</time>
      </trkpt>
      <trkpt lat="46.70249" lon="-2.36875">
        <ele>13</ele>
        <time>2023-11-05T10:51:59Z</time>
      </trkpt>
      <trkpt lat="46.7004" lon="-2.36811">
        <ele>13</ele>
        <time>2023-11-05T10:56:44Z</time>
      </trkpt>
      <trkpt lat="46.69976" lon="-2.36721">
        <ele>19</ele>
        <time>2023-11-05T10:58:43Z</time>
      </trkpt>
      <trkpt lat="46.70038" lon="-2.36579">
        <ele>23</ele>
        <time>2023-11-05T11:01:17Z</time>
      </trkpt>
      <trkpt lat="46.6984" lon="-2.3609">
        <ele>25</ele>
        <time>2023-11-05T11:09:57Z</time>
      </trkpt>
      <trkpt lat="46.69937" lon="-2.35914">
        <ele>22</ele>
        <time>2023-11-05T11:13:23Z</time>
      </trkpt>
      <trkpt lat="46.70117" lon="-2.35892">
        <ele>19</ele>
        <time>2023-11-05T11:17:24Z</time>
      </trkpt>
      <trkpt lat="46.70402" lon="-2.35429">
        <ele>25</ele>
        <time>2023-11-05T11:26:54Z</time>
      </trkpt>
      <trkpt lat="46.70556" lon="-2.35021">
        <ele>26</ele>
        <time>2023-11-05T11:34:00Z</time>
      </trkpt>
      <trkpt lat="46.70694" lon="-2.35094">
        <ele>27</ele>
        <time>2023-11-05T11:37:16Z</time>
      </trkpt>
      <trkpt lat="46.70909" lon="-2.34991">
        <ele>28</ele>
        <time>2023-11-05T11:42:18Z</time>
      </trkpt>
      <trkpt lat="46.71079" lon="-2.35498">
        <ele>23</ele>
        <time>2023-11-05T11:50:54Z</time>
      </trkpt>
      <trkpt lat="46.71029" lon="-2.35669">
        <ele>25</ele>
        <time>2023-11-05T11:53:44Z</time>
      </trkpt>
      <trkpt lat="46.71044" lon="-2.35892">
        <ele>22</ele>
        <time>2023-11-05T11:57:09Z</time>
      </trkpt>
      <trkpt lat="46.70809" lon="-2.36137">
        <ele>25</ele>
        <time>2023-11-05T12:03:35Z</time>
      </trkpt>
      <trkpt lat="46.70803" lon="-2.36571">
        <ele>24</ele>
        <time>2023-11-05T12:10:12Z</time>
      </trkpt>
      <trkpt lat="46.71147" lon="-2.36618">
        <ele>24</ele>
        <time>2023-11-05T12:17:53Z</time>
      </trkpt>
      <trkpt lat="46.71206" lon="-2.36695">
        <ele>24</ele>
        <time>2023-11-05T12:19:39Z</time>
      </trkpt>
      <trkpt lat="46.71259" lon="-2.36613">
        <ele>22</ele>
        <time>2023-11-05T12:21:22Z</time>
      </trkpt>
      <trkpt lat="46.71294" lon="-2.36712">
        <ele>23</ele>
        <time>2023-11-05T12:23:04Z</time>
      </trkpt>
      <trkpt lat="46.71215" lon="-2.36777">
        <ele>23</ele>
        <time>2023-11-05T12:25:05Z</time>
      </trkpt>
      <trkpt lat="46.71318" lon="-2.37386">
        <ele>26</ele>
        <time>2023-11-05T12:34:39Z</time>
      </trkpt>
      <trkpt lat="46.71382" lon="-2.37588">
        <ele>26</ele>
        <time>2023-11-05T12:38:02Z</time>
      </trkpt>
      <trkpt lat="46.71571" lon="-2.37832">
        <ele>24</ele>
        <time>2023-11-05T12:43:39Z</time>
      </trkpt>
      <trkpt lat="46.71565" lon="-2.37961">
        <ele>25</ele>
        <time>2023-11-05T12:45:38Z</time>
      </trkpt>
      <trkpt lat="46.71653" lon="-2.38154">
        <ele>25</ele>
        <time>2023-11-05T12:49:10Z</time>
      </trkpt>
      <trkpt lat="46.7155" lon="-2.38214">
        <ele>24</ele>
        <time>2023-11-05T12:51:38Z</time>
      </trkpt>
      <trkpt lat="46.71403" lon="-2.38429">
        <ele>25</ele>
        <time>2023-11-05T12:56:15Z</time>
      </trkpt>
      <trkpt lat="46.71156" lon="-2.38558">
        <ele>23</ele>
        <time>2023-11-05T13:02:05Z</time>
      </trkpt>
      <trkpt lat="46.7097" lon="-2.38764">
        <ele>13</ele>
        <time>2023-11-05T13:07:17Z</time>
      </trkpt>
      <trkpt lat="46.70897" lon="-2.38725">
        <ele>10</ele>
        <time>2023-11-05T13:09:01Z</time>
      </trkpt>
      <trkpt lat="46.70826" lon="-2.38549">
        <ele>9</ele>
        <time>2023-11-05T13:12:08Z</time>
      </trkpt>
      <trkpt lat="46.70788" lon="-2.38356">
        <ele>9</ele>
        <time>2023-11-05T13:15:12Z</time>
      </trkpt>
      <trkpt lat="46.70659" lon="-2.38154">
        <ele>9</ele>
        <time>2023-11-05T13:19:24Z</time>
      </trkpt>
      <trkpt lat="46.70523" lon="-2.37888">
        <ele>10</ele>
        <time>2023-11-05T13:24:28Z</time>
      </trkpt>
      <trkpt lat="46.70358" lon="-2.37879">
        <ele>10</ele>
        <time>2023-11-05T13:28:08Z</time>
      </trkpt>
      <trkpt lat="46.70241" lon="-2.37742">
        <ele>8</ele>
        <time>2023-11-05T13:31:28Z</time>
      </trkpt>
      <trkpt lat="46.70329" lon="-2.37497">
        <ele>8</ele>
        <time>2023-11-05T13:35:41Z</time>
      </trkpt>
    </trkseg>
  </trk>
</gpx>